Terminal Aerodrome Forecast
Issued by NWS

Home | Current Version | Previous Version | Text Only | Print | Product List | Glossary On
Versions: 1 2 3 4 5 6 7 8 9 10 11 12 13 14 15 16
000
FTUS44 KLZK 021700
TAFLIT
TAF
KLIT 021727Z 0218/0318 06008KT P6SM VCSH BKN025 OVC040
      TEMPO 0218/0220 4SM -RA BR OVC015
     FM022200 06006KT P6SM VCSH OVC010
     FM030100 06005KT 4SM BR VCSH OVC007
     FM030400 08002KT 4SM BR OVC003
     FM031300 10002KT 5SM BR OVC007
     FM031600 15002KT 6SM BR OVC007=

USA.gov is the U.S. government's official web portal to all federal, state and local government web resources and services.